Time;durP1;ratioP1;P1;durP2;ratioP2;P2;SDS_P1;SDS_P2;PMS_P1;PMS_P2;Temp;Humidity;BMP_temperature;BMP_pressure;BME280_temperature;BME280_humidity;BME280_pressure;Samples;Min_cycle;Max_cycle;Signal;HPM_P1;HPM_P2
2023/12/02 00:02:38;;;;;;;28.60;19.48;;;;;;;9.40;70.70;99176.33;1693082;84;21344;-83
2023/12/02 00:05:43;;;;;;;26.45;17.67;;;;;;;9.30;70.87;99182.64;1693471;84;21325;-84
2023/12/02 00:08:49;;;;;;;28.23;18.05;;;;;;;9.40;70.39;99211.81;1694227;84;21277;-84
2023/12/02 00:11:57;;;;;;;27.27;18.92;;;;;;;9.16;70.92;99223.95;1694360;84;21277;-84
2023/12/02 00:15:03;;;;;;;23.98;17.60;;;;;;;9.42;70.33;99212.48;1694095;84;21877;-84
2023/12/02 00:18:09;;;;;;;32.85;17.35;;;;;;;9.81;69.14;99211.13;1694135;84;21301;-84
2023/12/02 00:21:16;;;;;;;31.65;18.98;;;;;;;9.18;70.85;99200.07;1676694;84;21300;-84
2023/12/02 00:24:22;;;;;;;34.67;19.60;;;;;;;9.14;71.42;99200.13;1693117;84;21280;-84
2023/12/02 00:27:29;;;;;;;36.93;20.15;;;;;;;9.16;71.26;99193.11;1694433;84;21285;-84
2023/12/02 00:30:34;;;;;;;36.17;18.50;;;;;;;8.98;71.33;99194.06;1692917;84;21301;-84
2023/12/02 00:33:41;;;;;;;34.70;18.57;;;;;;;9.12;70.83;99202.71;1693157;84;21293;-84
2023/12/02 00:36:49;;;;;;;39.92;18.35;;;;;;;9.04;70.87;99190.58;1693437;84;21312;-84
2023/12/02 00:39:55;;;;;;;40.83;20.68;;;;;;;9.10;70.72;99191.16;1694310;84;21317;-84
2023/12/02 00:43:02;;;;;;;37.33;20.62;;;;;;;8.84;71.37;99204.81;1694392;84;21921;-84
2023/12/02 00:46:08;;;;;;;38.25;21.30;;;;;;;8.92;71.08;99225.16;1693415;84;21324;-84
2023/12/02 00:49:16;;;;;;;35.98;19.23;;;;;;;8.87;71.38;99209.90;1694253;84;21316;-84
2023/12/02 00:52:23;;;;;;;35.05;18.48;;;;;;;8.90;71.35;99195.89;1693200;84;21265;-84
2023/12/02 00:55:29;;;;;;;35.88;19.62;;;;;;;8.96;71.54;99219.66;1693033;84;21293;-84
2023/12/02 00:58:35;;;;;;;29.75;16.48;;;;;;;9.32;70.17;99216.58;1693445;84;21967;-84
2023/12/02 01:01:42;;;;;;;22.93;13.65;;;;;;;8.99;70.71;99225.26;1693021;84;21870;-84
2023/12/02 01:04:49;;;;;;;19.82;12.75;;;;;;;9.10;70.21;99233.45;1694269;84;21316;-84
2023/12/02 01:07:56;;;;;;;18.45;11.33;;;;;;;9.18;69.83;99226.52;1696309;84;21312;-84
2023/12/02 01:11:02;;;;;;;17.92;11.90;;;;;;;9.56;68.27;99217.54;1665315;86;21840;-84
2023/12/02 01:14:08;;;;;;;18.37;11.57;;;;;;;9.47;68.33;99218.72;1673916;84;21288;-84
2023/12/02 01:17:14;;;;;;;18.95;12.58;;;;;;;9.26;68.79;99203.17;1693161;84;21280;-84
2023/12/02 01:20:20;;;;;;;20.37;12.58;;;;;;;9.37;68.29;99196.38;1690320;84;21300;-84
2023/12/02 01:23:25;;;;;;;18.67;12.37;;;;;;;9.21;68.58;99195.57;1702299;84;21825;-83
2023/12/02 01:26:31;;;;;;;14.28;10.75;;;;;;;9.26;68.68;99192.25;1702066;84;21303;-83
2023/12/02 01:29:37;;;;;;;16.50;11.97;;;;;;;9.39;67.82;99197.84;1701980;84;21300;-84
2023/12/02 01:32:44;;;;;;;16.27;11.53;;;;;;;9.23;67.87;99196.76;1701982;84;21276;-83
2023/12/02 01:35:51;;;;;;;19.25;11.97;;;;;;;8.85;68.90;99198.35;1701305;84;21316;-83
2023/12/02 01:38:59;;;;;;;17.05;12.65;;;;;;;8.81;69.07;99196.20;1702141;84;21263;-83
2023/12/02 01:42:05;;;;;;;18.62;12.85;;;;;;;9.19;68.02;99190.84;1701942;84;21848;-83
2023/12/02 01:45:12;;;;;;;16.85;11.83;;;;;;;9.06;68.17;99198.88;1701781;84;21291;-83
2023/12/02 01:48:19;;;;;;;18.10;12.50;;;;;;;9.15;67.92;99195.52;1702134;84;21844;-84
2023/12/02 01:51:26;;;;;;;18.27;12.95;;;;;;;9.08;68.15;99195.95;1731254;83;21841;-83
2023/12/02 01:54:33;;;;;;;15.50;11.57;;;;;;;9.03;68.12;99192.96;1753080;81;21312;-84
2023/12/02 01:57:39;;;;;;;16.80;12.00;;;;;;;9.03;68.42;99195.16;1732256;83;21340;-84
2023/12/02 02:00:47;;;;;;;17.70;12.30;;;;;;;9.06;68.45;99191.22;1769157;81;21332;-84
2023/12/02 02:03:56;;;;;;;14.95;11.35;;;;;;;9.08;68.62;99197.31;1732045;83;21967;-84
2023/12/02 02:07:01;;;;;;;18.30;13.03;;;;;;;9.11;68.21;99202.39;1768634;81;21284;-84
2023/12/02 02:10:09;;;;;;;16.75;12.10;;;;;;;9.20;67.85;99184.86;1732852;83;21860;-84
2023/12/02 02:13:15;;;;;;;17.60;12.45;;;;;;;9.18;67.60;99176.04;1769887;81;21272;-86
2023/12/02 02:16:21;;;;;;;17.42;12.10;;;;;;;9.07;67.90;99174.65;1764138;81;21268;-84
2023/12/02 02:19:28;;;;;;;21.23;13.55;;;;;;;9.06;68.13;99174.86;1742033;81;21304;-85
2023/12/02 02:22:35;;;;;;;17.12;12.18;;;;;;;9.04;68.00;99188.70;1768724;81;21327;-85
2023/12/02 02:25:40;;;;;;;19.37;12.70;;;;;;;9.17;67.75;99200.24;1769227;81;21288;-85
2023/12/02 02:28:46;;;;;;;17.65;12.53;;;;;;;9.27;67.29;99208.10;1768922;81;21879;-86
2023/12/02 02:31:53;;;;;;;21.05;13.80;;;;;;;9.16;67.83;99214.93;1739274;82;21916;-85
2023/12/02 02:34:59;;;;;;;18.20;12.40;;;;;;;8.99;68.07;99212.98;1732231;81;21861;-85
2023/12/02 02:38:04;;;;;;;18.73;12.70;;;;;;;9.12;67.90;99223.17;1730413;83;21912;-86
2023/12/02 02:41:10;;;;;;;18.65;12.68;;;;;;;9.24;67.61;99235.80;1730065;81;21307;-86
2023/12/02 02:44:17;;;;;;;19.85;12.50;;;;;;;9.32;67.26;99238.41;1731224;80;21331;-86
2023/12/02 02:47:24;;;;;;;18.87;13.00;;;;;;;9.14;67.95;99249.76;1769828;81;21826;-86
2023/12/02 02:50:30;;;;;;;22.48;13.58;;;;;;;8.98;68.17;99246.72;1767307;81;21264;-86
2023/12/02 02:53:36;;;;;;;21.50;13.50;;;;;;;9.11;67.99;99238.70;1731215;83;21316;-85
2023/12/02 02:56:41;;;;;;;18.30;12.63;;;;;;;9.23;67.45;99244.51;1735360;82;21854;-85
2023/12/02 02:59:47;;;;;;;20.10;13.70;;;;;;;9.45;66.98;99242.61;1736147;82;21775;-85
2023/12/02 03:02:54;;;;;;;20.85;13.70;;;;;;;9.51;66.76;99245.95;1736684;82;21279;-84
2023/12/02 03:06:00;;;;;;;22.45;13.68;;;;;;;9.37;67.34;99239.52;1735718;82;21312;-85
2023/12/02 03:09:07;;;;;;;19.27;13.22;;;;;;;9.54;67.05;99262.44;1735494;82;21328;-85
2023/12/02 03:12:14;;;;;;;18.35;12.75;;;;;;;9.70;66.28;99273.95;1707497;84;21310;-85
2023/12/02 03:15:20;;;;;;;20.62;14.10;;;;;;;9.60;66.53;99280.80;1689461;84;21860;-85
2023/12/02 03:18:26;;;;;;;19.27;13.28;;;;;;;9.32;67.54;99282.08;1736463;82;21893;-85
2023/12/02 03:21:33;;;;;;;20.68;14.05;;;;;;;9.28;67.81;99277.52;1736819;82;21315;-85
2023/12/02 03:24:40;;;;;;;22.27;14.55;;;;;;;9.23;67.77;99255.42;1736878;82;21823;-84
2023/12/02 03:27:47;;;;;;;24.05;13.85;;;;;;;9.24;67.60;99239.37;1736808;82;21323;-85
2023/12/02 03:30:54;;;;;;;18.10;14.03;;;;;;;9.36;67.38;99246.51;1736660;82;21288;-85
2023/12/02 03:34:00;;;;;;;22.52;14.98;;;;;;;9.34;67.39;99244.51;1708030;82;21271;-85
2023/12/02 03:37:05;;;;;;;21.62;13.83;;;;;;;9.21;67.49;99252.02;1704163;84;21248;-85
2023/12/02 03:40:13;;;;;;;18.62;13.48;;;;;;;9.10;67.73;99266.19;1709263;82;22102;-85
2023/12/02 03:43:20;;;;;;;20.20;13.32;;;;;;;9.16;67.73;99272.22;1722319;83;21284;-85
2023/12/02 03:46:26;;;;;;;20.50;13.50;;;;;;;9.32;67.31;99258.36;1721883;82;21866;-86
2023/12/02 03:49:33;;;;;;;17.32;12.65;;;;;;;9.02;68.21;99266.28;1707241;82;21838;-86
2023/12/02 03:52:40;;;;;;;18.67;11.90;;;;;;;9.13;68.12;99266.65;1710752;83;21282;-85
2023/12/02 03:55:47;;;;;;;25.00;13.48;;;;;;;9.14;68.23;99268.86;1699296;83;21301;-86
2023/12/02 03:58:53;;;;;;;18.52;12.23;;;;;;;9.13;68.26;99272.11;1699229;84;21313;-85
2023/12/02 04:02:01;;;;;;;17.07;11.68;;;;;;;9.09;68.41;99276.25;1699417;84;21321;-85
2023/12/02 04:05:13;;;;;;;18.57;12.10;;;;;;;9.29;67.72;99267.44;1707799;83;21275;-86
2023/12/02 04:08:14;;;;;;;18.05;12.13;;;;;;;9.45;67.10;99289.02;1729703;83;21303;-85
2023/12/02 04:11:21;;;;;;;22.15;11.12;;;;;;;9.42;67.14;99271.16;1705518;83;21277;-85
2023/12/02 04:14:27;;;;;;;17.57;11.73;;;;;;;9.30;67.78;99243.20;1700491;84;21857;-85
2023/12/02 04:17:33;;;;;;;17.45;11.40;;;;;;;9.52;66.95;99245.42;1702542;83;21169;-86
2023/12/02 04:20:40;;;;;;;17.87;10.30;;;;;;;9.58;66.62;99254.19;1728892;83;21273;-85
2023/12/02 04:23:46;;;;;;;15.15;9.73;;;;;;;9.25;67.44;99253.85;1730027;83;21292;-86
2023/12/02 04:26:53;;;;;;;14.43;10.03;;;;;;;9.21;67.78;99254.23;1729476;83;21272;-85
2023/12/02 04:30:00;;;;;;;19.60;11.33;;;;;;;9.19;67.94;99265.03;1728424;83;21197;-85
2023/12/02 04:33:05;;;;;;;15.10;10.05;;;;;;;9.14;68.07;99262.03;1729784;83;21280;-86
2023/12/02 04:36:12;;;;;;;14.07;9.70;;;;;;;9.11;68.13;99270.07;1728258;83;21339;-86
2023/12/02 04:39:21;;;;;;;12.55;8.95;;;;;;;8.89;68.97;99273.78;1708556;83;21320;-86
2023/12/02 04:42:28;;;;;;;15.25;10.13;;;;;;;9.15;68.47;99280.93;1697563;84;21313;-86
2023/12/02 04:45:34;;;;;;;12.47;9.13;;;;;;;9.12;68.24;99274.48;1706503;83;21176;-86
2023/12/02 04:48:42;;;;;;;15.00;9.88;;;;;;;9.38;67.51;99284.86;1711836;83;21282;-86
2023/12/02 04:51:48;;;;;;;15.75;10.40;;;;;;;9.15;67.97;99292.36;1695971;84;21927;-86
2023/12/02 04:54:54;;;;;;;12.70;8.85;;;;;;;9.26;67.88;99273.27;1729792;83;21326;-87
2023/12/02 04:58:01;;;;;;;14.50;9.43;;;;;;;9.20;67.98;99258.00;1698011;84;21304;-86
2023/12/02 05:01:08;;;;;;;14.58;9.38;;;;;;;9.35;67.28;99262.05;1689742;84;21299;-86
2023/12/02 05:04:14;;;;;;;16.10;9.80;;;;;;;9.13;67.80;99264.45;1703979;83;21295;-86
2023/12/02 05:07:20;;;;;;;14.58;9.70;;;;;;;8.69;69.03;99254.45;1730591;82;21841;-86
2023/12/02 05:10:27;;;;;;;12.63;8.28;;;;;;;8.98;68.66;99248.09;1736012;81;21863;-86
2023/12/02 05:13:34;;;;;;;13.50;9.35;;;;;;;9.09;68.29;99242.67;1770176;81;21275;-85
2023/12/02 05:16:40;;;;;;;15.40;9.90;;;;;;;8.99;68.28;99247.56;1741385;81;21829;-85
2023/12/02 05:19:47;;;;;;;15.30;9.98;;;;;;;9.11;68.37;99241.42;1732601;81;21296;-86
2023/12/02 05:22:53;;;;;;;15.15;9.68;;;;;;;9.08;68.23;99245.92;1735393;82;21331;-86
2023/12/02 05:25:59;;;;;;;14.47;10.28;;;;;;;9.11;68.06;99258.31;1734035;81;21802;-85
2023/12/02 05:29:05;;;;;;;17.20;9.75;;;;;;;9.01;68.50;99283.17;1733610;83;21273;-86
2023/12/02 05:32:11;;;;;;;14.30;8.70;;;;;;;9.22;67.74;99290.54;1731866;81;21252;-86
2023/12/02 05:35:18;;;;;;;14.85;9.23;;;;;;;9.07;67.98;99298.77;1735231;81;21325;-86
2023/12/02 05:38:25;;;;;;;15.45;9.35;;;;;;;8.97;68.66;99285.95;1769679;81;21348;-85
2023/12/02 05:41:32;;;;;;;14.43;9.48;;;;;;;9.16;68.14;99269.50;1768625;81;21593;-85
2023/12/02 05:44:38;;;;;;;16.27;10.00;;;;;;;9.02;68.54;99269.02;1770200;81;21326;-85
2023/12/02 05:47:45;;;;;;;13.88;9.80;;;;;;;9.14;68.36;99294.77;1733567;83;21304;-85
2023/12/02 05:50:52;;;;;;;22.02;11.48;;;;;;;9.10;68.53;99307.94;1742621;81;21284;-86
2023/12/02 05:54:00;;;;;;;11.65;8.60;;;;;;;8.90;69.24;99309.06;1732941;83;21931;-86
2023/12/02 05:57:07;;;;;;;13.20;8.60;;;;;;;9.05;69.00;99328.13;1746809;81;21272;-85
2023/12/02 06:00:19;;;;;;;12.05;8.18;;;;;;;9.25;68.49;99330.25;1732270;83;21196;-86
2023/12/02 06:03:23;;;;;;;13.00;8.40;;;;;;;8.96;69.36;99326.02;1739821;82;21279;-86
2023/12/02 06:06:29;;;;;;;14.80;9.65;;;;;;;8.97;69.33;99322.77;1748437;81;21312;-86
2023/12/02 06:09:36;;;;;;;16.82;9.50;;;;;;;9.29;68.33;99313.83;1760074;81;21840;-85
2023/12/02 06:12:42;;;;;;;12.47;8.15;;;;;;;9.39;67.85;99313.00;1765773;81;21265;-85
2023/12/02 06:15:48;;;;;;;13.43;8.68;;;;;;;9.40;67.67;99312.80;1764990;81;21726;-86
2023/12/02 06:18:55;;;;;;;15.70;8.90;;;;;;;9.29;68.10;99300.19;1747250;81;21865;-85
2023/12/02 06:22:02;;;;;;;12.65;8.78;;;;;;;8.97;68.83;99285.95;1768729;81;21260;-86
2023/12/02 06:25:09;;;;;;;15.53;8.73;;;;;;;9.23;68.44;99271.80;1769913;81;21888;-86
2023/12/02 06:28:15;;;;;;;12.85;8.60;;;;;;;9.25;68.18;99269.70;1742478;82;21300;-86
2023/12/02 06:31:20;;;;;;;13.93;8.85;;;;;;;9.04;68.74;99271.89;1749427;81;21272;-85
2023/12/02 06:34:27;;;;;;;13.48;8.80;;;;;;;8.80;69.75;99301.70;1770099;81;21289;-86
2023/12/02 06:37:33;;;;;;;13.60;9.73;;;;;;;9.07;69.26;99309.68;1768320;81;21323;-85
2023/12/02 06:40:40;;;;;;;16.50;10.68;;;;;;;8.99;69.39;99308.45;1768077;81;21299;-85
2023/12/02 06:43:48;;;;;;;16.10;10.15;;;;;;;9.10;68.76;99330.29;1747330;81;21272;-86
2023/12/02 06:46:54;;;;;;;14.75;9.78;;;;;;;9.10;68.72;99337.11;1772168;81;21252;-85
2023/12/02 06:50:00;;;;;;;12.60;8.80;;;;;;;9.13;68.61;99342.20;1749425;81;21308;-85
2023/12/02 06:53:08;;;;;;;11.60;8.75;;;;;;;9.21;68.54;99332.52;1731342;83;21264;-86
2023/12/02 06:56:26;;;;;;;14.70;10.63;;;;;;;9.16;68.61;99325.42;1721177;81;21252;-85
2023/12/02 06:59:33;;;;;;;15.00;9.68;;;;;;;9.22;68.16;99335.56;1767711;81;21741;-85
2023/12/02 07:02:38;;;;;;;15.25;9.60;;;;;;;9.40;67.87;99350.16;1766224;81;21267;-85
2023/12/02 07:05:45;;;;;;;14.55;10.08;;;;;;;9.38;67.83;99339.97;1766680;81;21352;-85
2023/12/02 07:08:52;;;;;;;14.70;9.65;;;;;;;9.42;67.65;99308.00;1731006;83;21384;-85
2023/12/02 07:11:58;;;;;;;12.37;9.08;;;;;;;9.50;67.51;99303.45;1720483;83;21285;-85
2023/12/02 07:15:04;;;;;;;13.85;10.23;;;;;;;9.49;67.58;99317.62;1697814;84;21367;-84
2023/12/02 07:18:11;;;;;;;15.35;9.93;;;;;;;9.56;67.24;99316.34;1681893;84;21304;-84
2023/12/02 07:21:17;;;;;;;12.43;9.40;;;;;;;9.66;67.14;99329.99;1731368;82;21923;-84
2023/12/02 07:24:24;;;;;;;19.92;10.05;;;;;;;9.46;67.64;99342.06;1730713;83;21872;-85
2023/12/02 07:27:31;;;;;;;15.23;9.15;;;;;;;9.58;67.60;99342.39;1719323;83;21292;-84
2023/12/02 07:30:38;;;;;;;14.83;9.35;;;;;;;9.71;67.34;99360.29;1669859;84;21363;-84
2023/12/02 07:33:44;;;;;;;14.63;9.40;;;;;;;9.64;67.46;99348.44;1731063;83;21292;-84
2023/12/02 07:36:52;;;;;;;12.53;8.75;;;;;;;9.52;68.16;99340.45;1729723;83;21294;-84
2023/12/02 07:39:59;;;;;;;15.08;10.18;;;;;;;9.69;67.89;99334.20;1657515;84;21896;-84
2023/12/02 07:43:05;;;;;;;15.95;8.25;;;;;;;10.15;66.42;99339.27;1704419;84;21276;-84
2023/12/02 07:46:13;;;;;;;14.13;8.45;;;;;;;9.94;66.97;99330.06;1709259;84;21363;-84
2023/12/02 07:49:20;;;;;;;10.40;8.10;;;;;;;10.12;66.38;99328.75;1710375;82;21772;-84
2023/12/02 07:52:26;;;;;;;10.23;7.58;;;;;;;10.03;66.57;99331.30;1709549;84;21272;-84
2023/12/02 07:55:32;;;;;;;12.78;9.30;;;;;;;10.08;66.74;99330.19;1701019;83;21339;-84
2023/12/02 07:58:39;;;;;;;11.93;8.33;;;;;;;9.76;67.49;99332.40;1689750;84;21835;-84
2023/12/02 08:01:47;;;;;;;12.03;8.80;;;;;;;10.27;65.92;99307.67;1698254;84;21647;-84
2023/12/02 08:04:54;;;;;;;14.78;8.78;;;;;;;10.03;66.68;99320.37;1698579;84;21940;-84
2023/12/02 08:08:03;;;;;;;14.65;8.30;;;;;;;9.95;66.94;99322.70;1685151;84;21324;-84
2023/12/02 08:11:09;;;;;;;14.13;8.95;;;;;;;9.87;66.89;99326.41;1680555;84;21344;-84
2023/12/02 08:14:16;;;;;;;11.53;8.20;;;;;;;9.86;67.04;99317.89;1678047;84;21298;-84
2023/12/02 08:17:22;;;;;;;12.55;8.08;;;;;;;9.87;67.13;99318.21;1681512;84;21959;-84
2023/12/02 08:20:29;;;;;;;13.32;8.48;;;;;;;9.48;68.35;99328.22;1684385;84;21347;-84
2023/12/02 08:23:35;;;;;;;14.00;7.92;;;;;;;9.44;68.44;99322.29;1686791;84;21252;-84
2023/12/02 08:26:42;;;;;;;12.55;7.85;;;;;;;9.59;68.26;99335.05;1686625;84;21288;-84
2023/12/02 08:29:47;;;;;;;11.53;7.78;;;;;;;9.42;68.90;99335.83;1681317;85;21240;-83
2023/12/02 08:32:54;;;;;;;12.18;7.15;;;;;;;9.66;68.28;99359.19;1685472;84;21313;-83
2023/12/02 08:36:00;;;;;;;11.18;7.95;;;;;;;9.46;68.59;99334.41;1691262;84;21904;-84
2023/12/02 08:39:06;;;;;;;9.93;6.12;;;;;;;9.56;68.48;99314.98;1670100;86;21289;-84
2023/12/02 08:42:13;;;;;;;12.55;7.78;;;;;;;9.63;68.30;99309.05;1662519;84;21300;-84
2023/12/02 08:45:19;;;;;;;9.63;6.20;;;;;;;9.81;67.83;99317.64;1666663;86;21931;-84
2023/12/02 08:48:26;;;;;;;14.38;6.90;;;;;;;10.00;67.01;99328.42;1686114;85;21181;-84
2023/12/02 08:51:32;;;;;;;10.43;6.42;;;;;;;10.17;66.61;99336.67;1690121;85;21912;-84
2023/12/02 08:54:39;;;;;;;11.55;5.45;;;;;;;10.35;66.06;99325.78;1690331;85;21216;-84
2023/12/02 08:57:46;;;;;;;11.18;5.85;;;;;;;10.55;65.71;99343.20;1687030;84;21384;-84
2023/12/02 09:00:52;;;;;;;10.03;5.90;;;;;;;10.84;64.75;99357.17;1673155;86;21316;-84
2023/12/02 09:03:59;;;;;;;8.63;6.03;;;;;;;10.44;65.53;99324.09;1665461;86;21334;-84
2023/12/02 09:07:05;;;;;;;9.78;6.25;;;;;;;10.41;66.24;99334.05;1669666;85;21279;-84
2023/12/02 09:10:13;;;;;;;14.23;5.75;;;;;;;10.48;66.17;99350.49;1666061;86;21888;-84
2023/12/02 09:13:31;;;;;;;7.53;5.15;;;;;;;10.43;66.74;99349.72;1650402;86;21316;-85
2023/12/02 09:21:02;;;;;;;8.33;5.78;;;;;;;10.83;65.85;99335.49;1664830;86;21368;-84
